sensor_id;sensor_type;location;lat;lon;timestamp;temperature;humidity
5711;DHT22;61291;52.524;13.422;2022-09-30T00:00:55;6.50;99.90
5711;DHT22;61291;52.524;13.422;2022-09-30T00:03:20;6.50;99.90
5711;DHT22;61291;52.524;13.422;2022-09-30T00:05:46;6.50;99.90
5711;DHT22;61291;52.524;13.422;2022-09-30T00:08:12;6.50;99.90
5711;DHT22;61291;52.524;13.422;2022-09-30T00:10:38;6.50;99.90
5711;DHT22;61291;52.524;13.422;2022-09-30T00:13:04;6.40;99.90
5711;DHT22;61291;52.524;13.422;2022-09-30T00:15:29;6.40;99.90
5711;DHT22;61291;52.524;13.422;2022-09-30T00:17:54;6.40;99.90
5711;DHT22;61291;52.524;13.422;2022-09-30T00:20:20;6.50;99.90
5711;DHT22;61291;52.524;13.422;2022-09-30T00:22:45;6.50;99.90
5711;DHT22;61291;52.524;13.422;2022-09-30T00:25:11;6.40;99.90
5711;DHT22;61291;52.524;13.422;2022-09-30T00:27:36;6.40;99.90
5711;DHT22;61291;52.524;13.422;2022-09-30T00:30:03;6.30;99.90
5711;DHT22;61291;52.524;13.422;2022-09-30T00:32:29;6.30;99.90
5711;DHT22;61291;52.524;13.422;2022-09-30T00:34:54;6.30;99.90
5711;DHT22;61291;52.524;13.422;2022-09-30T00:37:20;6.30;99.90
5711;DHT22;61291;52.524;13.422;2022-09-30T00:39:45;6.20;99.90
5711;DHT22;61291;52.524;13.422;2022-09-30T00:42:13;6.30;99.90
5711;DHT22;61291;52.524;13.422;2022-09-30T00:45:03;6.30;99.90
5711;DHT22;61291;52.524;13.422;2022-09-30T00:47:45;6.30;99.90
5711;DHT22;61291;52.524;13.422;2022-09-30T00:50:19;6.30;99.90
5711;DHT22;61291;52.524;13.422;2022-09-30T00:52:49;6.20;99.90
5711;DHT22;61291;52.524;13.422;2022-09-30T00:55:47;6.30;99.90
5711;DHT22;61291;52.524;13.422;2022-09-30T00:58:20;6.40;99.90
5711;DHT22;61291;52.524;13.422;2022-09-30T01:00:47;6.40;99.90
5711;DHT22;61291;52.524;13.422;2022-09-30T01:03:14;6.40;99.90
5711;DHT22;61291;52.524;13.422;2022-09-30T01:05:40;6.40;99.90
5711;DHT22;61291;52.524;13.422;2022-09-30T01:08:07;6.40;99.90
5711;DHT22;61291;52.524;13.422;2022-09-30T01:10:33;6.40;99.90
5711;DHT22;61291;52.524;13.422;2022-09-30T01:12:58;6.20;99.90
5711;DHT22;61291;52.524;13.422;2022-09-30T01:15:34;6.20;99.90
5711;DHT22;61291;52.524;13.422;2022-09-30T01:18:22;6.10;99.90
5711;DHT22;61291;52.524;13.422;2022-09-30T01:24:36;6.10;99.90
5711;DHT22;61291;52.524;13.422;2022-09-30T01:27:34;6.10;99.90
5711;DHT22;61291;52.524;13.422;2022-09-30T01:30:09;6.30;99.90
5711;DHT22;61291;52.524;13.422;2022-09-30T01:33:02;6.20;99.90
5711;DHT22;61291;52.524;13.422;2022-09-30T01:38:49;6.20;99.90
5711;DHT22;61291;52.524;13.422;2022-09-30T01:41:26;6.20;99.90
5711;DHT22;61291;52.524;13.422;2022-09-30T01:44:12;6.20;99.90
5711;DHT22;61291;52.524;13.422;2022-09-30T01:49:39;6.10;99.90
5711;DHT22;61291;52.524;13.422;2022-09-30T01:52:24;6.10;99.90
5711;DHT22;61291;52.524;13.422;2022-09-30T01:57:48;6.20;99.90
5711;DHT22;61291;52.524;13.422;2022-09-30T02:00:17;6.10;99.90
5711;DHT22;61291;52.524;13.422;2022-09-30T02:02:57;6.20;99.90
5711;DHT22;61291;52.524;13.422;2022-09-30T02:08:16;6.20;99.90
5711;DHT22;61291;52.524;13.422;2022-09-30T02:10:48;6.10;99.90
5711;DHT22;61291;52.524;13.422;2022-09-30T02:13:19;6.10;99.90
5711;DHT22;61291;52.524;13.422;2022-09-30T02:15:53;6.10;99.90
5711;DHT22;61291;52.524;13.422;2022-09-30T02:18:27;6.10;99.90
5711;DHT22;61291;52.524;13.422;2022-09-30T02:20:59;6.10;99.90
5711;DHT22;61291;52.524;13.422;2022-09-30T02:23:27;6.10;99.90
5711;DHT22;61291;52.524;13.422;2022-09-30T02:26:01;6.10;99.90
5711;DHT22;61291;52.524;13.422;2022-09-30T02:28:33;6.10;99.90
5711;DHT22;61291;52.524;13.422;2022-09-30T02:31:01;6.10;99.90
5711;DHT22;61291;52.524;13.422;2022-09-30T02:33:41;6.20;99.90
5711;DHT22;61291;52.524;13.422;2022-09-30T02:36:14;6.20;99.90
5711;DHT22;61291;52.524;13.422;2022-09-30T02:38:44;6.20;99.90
5711;DHT22;61291;52.524;13.422;2022-09-30T02:41:14;6.10;99.90
5711;DHT22;61291;52.524;13.422;2022-09-30T02:43:40;6.00;99.90
5711;DHT22;61291;52.524;13.422;2022-09-30T02:46:18;6.10;99.90
5711;DHT22;61291;52.524;13.422;2022-09-30T02:49:01;6.10;99.90
5711;DHT22;61291;52.524;13.422;2022-09-30T02:51:34;6.00;99.90
5711;DHT22;61291;52.524;13.422;2022-09-30T02:54:19;6.00;99.90
5711;DHT22;61291;52.524;13.422;2022-09-30T02:57:06;6.10;99.90
5711;DHT22;61291;52.524;13.422;2022-09-30T02:59:37;6.00;99.90
5711;DHT22;61291;52.524;13.422;2022-09-30T03:02:04;5.90;99.90
5711;DHT22;61291;52.524;13.422;2022-09-30T03:04:32;5.80;99.90
5711;DHT22;61291;52.524;13.422;2022-09-30T03:06:59;5.80;99.90
5711;DHT22;61291;52.524;13.422;2022-09-30T03:09:26;5.70;99.90
5711;DHT22;61291;52.524;13.422;2022-09-30T03:11:59;5.70;99.90
5711;DHT22;61291;52.524;13.422;2022-09-30T03:14:38;5.80;99.90
5711;DHT22;61291;52.524;13.422;2022-09-30T03:17:29;5.70;99.90
5711;DHT22;61291;52.524;13.422;2022-09-30T03:20:20;5.70;99.90
5711;DHT22;61291;52.524;13.422;2022-09-30T03:26:12;5.70;99.90
5711;DHT22;61291;52.524;13.422;2022-09-30T03:29:13;5.70;99.90
5711;DHT22;61291;52.524;13.422;2022-09-30T03:32:05;5.80;99.90
5711;DHT22;61291;52.524;13.422;2022-09-30T03:35:08;5.80;99.90
5711;DHT22;61291;52.524;13.422;2022-09-30T03:37:45;5.90;99.90
5711;DHT22;61291;52.524;13.422;2022-09-30T03:40:36;5.80;99.90
5711;DHT22;61291;52.524;13.422;2022-09-30T03:43:28;5.90;99.90
5711;DHT22;61291;52.524;13.422;2022-09-30T03:46:21;5.80;99.90
5711;DHT22;61291;52.524;13.422;2022-09-30T03:48:52;5.70;99.90
5711;DHT22;61291;52.524;13.422;2022-09-30T03:51:20;5.70;99.90
5711;DHT22;61291;52.524;13.422;2022-09-30T03:53:49;5.70;99.90
5711;DHT22;61291;52.524;13.422;2022-09-30T03:56:26;5.80;99.90
5711;DHT22;61291;52.524;13.422;2022-09-30T03:58:52;5.70;99.90
5711;DHT22;61291;52.524;13.422;2022-09-30T04:01:19;5.70;99.90
5711;DHT22;61291;52.524;13.422;2022-09-30T04:03:46;5.80;99.90
5711;DHT22;61291;52.524;13.422;2022-09-30T04:06:12;5.90;99.90
5711;DHT22;61291;52.524;13.422;2022-09-30T04:08:38;5.90;99.90
5711;DHT22;61291;52.524;13.422;2022-09-30T04:11:03;5.90;99.90
5711;DHT22;61291;52.524;13.422;2022-09-30T04:13:30;5.90;99.90
5711;DHT22;61291;52.524;13.422;2022-09-30T04:15:55;5.80;99.90
5711;DHT22;61291;52.524;13.422;2022-09-30T04:18:21;5.70;99.90
5711;DHT22;61291;52.524;13.422;2022-09-30T04:20:47;5.70;99.90
5711;DHT22;61291;52.524;13.422;2022-09-30T04:23:12;5.70;99.90
5711;DHT22;61291;52.524;13.422;2022-09-30T04:25:38;5.80;99.90
5711;DHT22;61291;52.524;13.422;2022-09-30T04:28:03;5.80;99.90
5711;DHT22;61291;52.524;13.422;2022-09-30T04:30:29;5.70;99.90
5711;DHT22;61291;52.524;13.422;2022-09-30T04:32:54;5.70;99.90
5711;DHT22;61291;52.524;13.422;2022-09-30T04:35:20;5.70;99.90
5711;DHT22;61291;52.524;13.422;2022-09-30T04:37:46;5.80;99.90
5711;DHT22;61291;52.524;13.422;2022-09-30T04:40:13;5.80;99.90
5711;DHT22;61291;52.524;13.422;2022-09-30T04:42:40;5.80;99.90
5711;DHT22;61291;52.524;13.422;2022-09-30T04:45:12;5.80;99.90
5711;DHT22;61291;52.524;13.422;2022-09-30T04:47:38;5.80;99.90
5711;DHT22;61291;52.524;13.422;2022-09-30T04:50:04;5.80;99.90
5711;DHT22;61291;52.524;13.422;2022-09-30T04:52:30;5.70;99.90
5711;DHT22;61291;52.524;13.422;2022-09-30T04:54:55;5.70;99.90
5711;DHT22;61291;52.524;13.422;2022-09-30T04:57:22;5.70;99.90
5711;DHT22;61291;52.524;13.422;2022-09-30T04:59:48;5.70;99.90
5711;DHT22;61291;52.524;13.422;2022-09-30T05:02:15;5.70;99.90
5711;DHT22;61291;52.524;13.422;2022-09-30T05:04:41;5.80;99.90
5711;DHT22;61291;52.524;13.422;2022-09-30T05:07:06;5.80;99.90
5711;DHT22;61291;52.524;13.422;2022-09-30T05:09:33;5.90;99.90
5711;DHT22;61291;52.524;13.422;2022-09-30T05:11:59;5.90;99.90
5711;DHT22;61291;52.524;13.422;2022-09-30T05:14:28;5.90;99.90
5711;DHT22;61291;52.524;13.422;2022-09-30T05:16:54;5.90;99.90
5711;DHT22;61291;52.524;13.422;2022-09-30T05:19:19;5.90;99.90
5711;DHT22;61291;52.524;13.422;2022-09-30T05:21:45;5.90;99.90
5711;DHT22;61291;52.524;13.422;2022-09-30T05:24:10;6.00;99.90
5711;DHT22;61291;52.524;13.422;2022-09-30T05:26:36;6.00;99.90
5711;DHT22;61291;52.524;13.422;2022-09-30T05:29:02;6.10;99.90
5711;DHT22;61291;52.524;13.422;2022-09-30T05:31:27;6.10;99.90
5711;DHT22;61291;52.524;13.422;2022-09-30T05:33:53;6.20;99.90
5711;DHT22;61291;52.524;13.422;2022-09-30T05:36:19;6.20;99.90
5711;DHT22;61291;52.524;13.422;2022-09-30T05:38:44;6.20;99.90
5711;DHT22;61291;52.524;13.422;2022-09-30T05:41:12;6.30;99.90
5711;DHT22;61291;52.524;13.422;2022-09-30T05:43:39;6.40;99.90
5711;DHT22;61291;52.524;13.422;2022-09-30T05:46:05;6.40;99.90
5711;DHT22;61291;52.524;13.422;2022-09-30T05:48:30;6.50;99.90
5711;DHT22;61291;52.524;13.422;2022-09-30T05:50:57;6.60;99.90
5711;DHT22;61291;52.524;13.422;2022-09-30T05:53:25;6.60;99.90
5711;DHT22;61291;52.524;13.422;2022-09-30T05:55:51;6.80;99.90
5711;DHT22;61291;52.524;13.422;2022-09-30T05:58:17;6.90;99.90
5711;DHT22;61291;52.524;13.422;2022-09-30T06:00:44;7.00;99.90
5711;DHT22;61291;52.524;13.422;2022-09-30T06:03:10;7.10;99.90
5711;DHT22;61291;52.524;13.422;2022-09-30T06:05:35;7.50;99.90
5711;DHT22;61291;52.524;13.422;2022-09-30T06:08:01;7.70;99.90
5711;DHT22;61291;52.524;13.422;2022-09-30T06:10:28;8.10;99.90
5711;DHT22;61291;52.524;13.422;2022-09-30T06:12:53;8.50;99.90
5711;DHT22;61291;52.524;13.422;2022-09-30T06:15:22;8.80;99.90
5711;DHT22;61291;52.524;13.422;2022-09-30T06:17:52;9.00;99.90
5711;DHT22;61291;52.524;13.422;2022-09-30T06:20:18;9.30;99.90
5711;DHT22;61291;52.524;13.422;2022-09-30T06:22:43;9.40;99.90
5711;DHT22;61291;52.524;13.422;2022-09-30T06:25:09;9.60;99.90
5711;DHT22;61291;52.524;13.422;2022-09-30T06:27:35;9.80;99.90
5711;DHT22;61291;52.524;13.422;2022-09-30T06:30:03;9.90;99.90
5711;DHT22;61291;52.524;13.422;2022-09-30T06:32:29;10.00;99.90
5711;DHT22;61291;52.524;13.422;2022-09-30T06:34:55;10.10;99.90
5711;DHT22;61291;52.524;13.422;2022-09-30T06:37:24;10.20;99.90
5711;DHT22;61291;52.524;13.422;2022-09-30T06:39:50;10.30;99.90
5711;DHT22;61291;52.524;13.422;2022-09-30T06:42:16;10.30;99.90
5711;DHT22;61291;52.524;13.422;2022-09-30T06:44:42;10.40;99.90
5711;DHT22;61291;52.524;13.422;2022-09-30T06:47:07;10.50;99.90
5711;DHT22;61291;52.524;13.422;2022-09-30T06:49:33;10.50;99.90
5711;DHT22;61291;52.524;13.422;2022-09-30T06:51:59;10.60;99.90
5711;DHT22;61291;52.524;13.422;2022-09-30T06:54:26;10.60;99.90
5711;DHT22;61291;52.524;13.422;2022-09-30T06:56:53;10.60;99.90
5711;DHT22;61291;52.524;13.422;2022-09-30T06:59:19;10.60;99.90
5711;DHT22;61291;52.524;13.422;2022-09-30T07:01:45;10.50;99.90
5711;DHT22;61291;52.524;13.422;2022-09-30T07:04:11;10.40;99.90
5711;DHT22;61291;52.524;13.422;2022-09-30T07:06:37;10.40;99.90
5711;DHT22;61291;52.524;13.422;2022-09-30T07:09:04;10.40;99.90
5711;DHT22;61291;52.524;13.422;2022-09-30T07:11:29;10.30;99.90
5711;DHT22;61291;52.524;13.422;2022-09-30T07:13:55;10.40;99.90
5711;DHT22;61291;52.524;13.422;2022-09-30T07:16:20;10.40;99.90
5711;DHT22;61291;52.524;13.422;2022-09-30T07:18:49;10.40;99.90
5711;DHT22;61291;52.524;13.422;2022-09-30T07:21:17;10.40;99.90
5711;DHT22;61291;52.524;13.422;2022-09-30T07:23:43;10.40;99.90
5711;DHT22;61291;52.524;13.422;2022-09-30T07:26:14;10.50;99.90
5711;DHT22;61291;52.524;13.422;2022-09-30T07:28:41;10.50;99.90
5711;DHT22;61291;52.524;13.422;2022-09-30T07:31:16;10.60;99.90
5711;DHT22;61291;52.524;13.422;2022-09-30T07:33:43;10.60;99.90
5711;DHT22;61291;52.524;13.422;2022-09-30T07:36:13;10.60;99.90
5711;DHT22;61291;52.524;13.422;2022-09-30T07:38:43;10.70;99.90
5711;DHT22;61291;52.524;13.422;2022-09-30T07:41:12;10.70;99.90
5711;DHT22;61291;52.524;13.422;2022-09-30T07:43:39;10.80;99.90
5711;DHT22;61291;52.524;13.422;2022-09-30T07:46:17;10.80;99.90
5711;DHT22;61291;52.524;13.422;2022-09-30T07:48:46;10.90;99.90
5711;DHT22;61291;52.524;13.422;2022-09-30T07:53:51;11.00;99.90
5711;DHT22;61291;52.524;13.422;2022-09-30T07:56:17;11.00;99.90
5711;DHT22;61291;52.524;13.422;2022-09-30T07:58:43;11.10;99.90
5711;DHT22;61291;52.524;13.422;2022-09-30T08:01:09;11.20;99.90
5711;DHT22;61291;52.524;13.422;2022-09-30T08:03:38;11.20;99.90
5711;DHT22;61291;52.524;13.422;2022-09-30T08:06:10;11.30;99.90
5711;DHT22;61291;52.524;13.422;2022-09-30T08:08:36;11.40;99.90
5711;DHT22;61291;52.524;13.422;2022-09-30T08:11:03;11.40;99.90
5711;DHT22;61291;52.524;13.422;2022-09-30T08:13:28;11.50;99.90
5711;DHT22;61291;52.524;13.422;2022-09-30T08:15:54;11.50;99.90
5711;DHT22;61291;52.524;13.422;2022-09-30T08:18:19;11.60;99.90
5711;DHT22;61291;52.524;13.422;2022-09-30T08:20:45;11.60;99.90
5711;DHT22;61291;52.524;13.422;2022-09-30T08:23:10;11.70;99.90
5711;DHT22;61291;52.524;13.422;2022-09-30T08:25:36;11.80;99.90
5711;DHT22;61291;52.524;13.422;2022-09-30T08:28:01;11.90;99.90
5711;DHT22;61291;52.524;13.422;2022-09-30T08:30:27;11.90;99.90
5711;DHT22;61291;52.524;13.422;2022-09-30T08:32:52;12.00;99.90
5711;DHT22;61291;52.524;13.422;2022-09-30T08:35:18;12.00;99.90
5711;DHT22;61291;52.524;13.422;2022-09-30T08:37:43;12.10;99.90
5711;DHT22;61291;52.524;13.422;2022-09-30T08:40:22;12.20;99.90
5711;DHT22;61291;52.524;13.422;2022-09-30T08:43:20;12.30;99.90
5711;DHT22;61291;52.524;13.422;2022-09-30T08:48:56;12.40;99.90
5711;DHT22;61291;52.524;13.422;2022-09-30T08:51:36;12.60;99.90
5711;DHT22;61291;52.524;13.422;2022-09-30T08:54:08;12.70;99.90
5711;DHT22;61291;52.524;13.422;2022-09-30T08:56:35;12.70;99.90
5711;DHT22;61291;52.524;13.422;2022-09-30T08:59:22;12.80;99.90
5711;DHT22;61291;52.524;13.422;2022-09-30T09:01:53;12.80;99.90
5711;DHT22;61291;52.524;13.422;2022-09-30T09:04:22;12.90;99.90
5711;DHT22;61291;52.524;13.422;2022-09-30T09:07:04;12.90;99.90
5711;DHT22;61291;52.524;13.422;2022-09-30T09:09:35;13.00;99.90
5711;DHT22;61291;52.524;13.422;2022-09-30T09:12:25;13.10;99.90
5711;DHT22;61291;52.524;13.422;2022-09-30T09:17:57;13.40;99.90
5711;DHT22;61291;52.524;13.422;2022-09-30T09:20:31;13.40;99.90
5711;DHT22;61291;52.524;13.422;2022-09-30T09:22:58;13.50;99.90
5711;DHT22;61291;52.524;13.422;2022-09-30T09:25:26;13.60;99.90
5711;DHT22;61291;52.524;13.422;2022-09-30T09:28:00;13.70;99.90
5711;DHT22;61291;52.524;13.422;2022-09-30T09:30:42;13.90;99.90
5711;DHT22;61291;52.524;13.422;2022-09-30T09:33:17;13.90;99.90
5711;DHT22;61291;52.524;13.422;2022-09-30T09:36:00;14.00;99.90
5711;DHT22;61291;52.524;13.422;2022-09-30T09:38:45;14.10;99.90
5711;DHT22;61291;52.524;13.422;2022-09-30T09:44:10;14.30;99.90
5711;DHT22;61291;52.524;13.422;2022-09-30T09:51:55;14.50;99.90
5711;DHT22;61291;52.524;13.422;2022-09-30T09:54:25;14.50;99.90
5711;DHT22;61291;52.524;13.422;2022-09-30T09:56:52;14.60;99.90
5711;DHT22;61291;52.524;13.422;2022-09-30T09:59:19;14.60;99.90
5711;DHT22;61291;52.524;13.422;2022-09-30T10:01:50;14.70;99.90
5711;DHT22;61291;52.524;13.422;2022-09-30T10:04:26;14.80;99.90
5711;DHT22;61291;52.524;13.422;2022-09-30T10:07:11;14.90;99.90
5711;DHT22;61291;52.524;13.422;2022-09-30T10:09:38;15.00;99.90
5711;DHT22;61291;52.524;13.422;2022-09-30T10:14:29;15.00;99.90
5711;DHT22;61291;52.524;13.422;2022-09-30T10:17:04;15.10;99.90
5711;DHT22;61291;52.524;13.422;2022-09-30T10:19:32;15.20;99.90
5711;DHT22;61291;52.524;13.422;2022-09-30T10:24:34;15.30;99.90
5711;DHT22;61291;52.524;13.422;2022-09-30T10:27:00;15.30;99.90
5711;DHT22;61291;52.524;13.422;2022-09-30T10:29:29;15.40;99.90
5711;DHT22;61291;52.524;13.422;2022-09-30T10:31:57;15.50;99.90
5711;DHT22;61291;52.524;13.422;2022-09-30T10:34:35;15.60;99.90
5711;DHT22;61291;52.524;13.422;2022-09-30T10:37:06;15.70;99.90
5711;DHT22;61291;52.524;13.422;2022-09-30T10:39:37;15.70;99.90
5711;DHT22;61291;52.524;13.422;2022-09-30T10:42:18;15.70;99.90
5711;DHT22;61291;52.524;13.422;2022-09-30T10:44:52;15.80;99.90
5711;DHT22;61291;52.524;13.422;2022-09-30T10:47:21;15.80;99.90
5711;DHT22;61291;52.524;13.422;2022-09-30T10:50:00;15.90;99.90
5711;DHT22;61291;52.524;13.422;2022-09-30T10:52:39;15.90;99.90
5711;DHT22;61291;52.524;13.422;2022-09-30T10:55:28;15.90;99.90
5711;DHT22;61291;52.524;13.422;2022-09-30T10:57:57;16.00;99.90
5711;DHT22;61291;52.524;13.422;2022-09-30T11:00:25;16.00;99.90
5711;DHT22;61291;52.524;13.422;2022-09-30T11:03:10;16.10;99.90
5711;DHT22;61291;52.524;13.422;2022-09-30T11:05:41;16.30;99.90
5711;DHT22;61291;52.524;13.422;2022-09-30T11:08:32;16.30;99.60
5711;DHT22;61291;52.524;13.422;2022-09-30T11:11:26;16.30;98.40
5711;DHT22;61291;52.524;13.422;2022-09-30T11:14:06;16.30;98.30
5711;DHT22;61291;52.524;13.422;2022-09-30T11:21:59;16.30;97.60
5711;DHT22;61291;52.524;13.422;2022-09-30T11:33:22;16.20;96.00
5711;DHT22;61291;52.524;13.422;2022-09-30T11:36:22;16.30;95.20
5711;DHT22;61291;52.524;13.422;2022-09-30T11:42:07;16.30;95.20
5711;DHT22;61291;52.524;13.422;2022-09-30T11:44:39;16.40;95.40
5711;DHT22;61291;52.524;13.422;2022-09-30T11:47:31;16.50;95.50
5711;DHT22;61291;52.524;13.422;2022-09-30T11:52:52;16.90;95.20
5711;DHT22;61291;52.524;13.422;2022-09-30T11:58:30;17.20;94.60
5711;DHT22;61291;52.524;13.422;2022-09-30T12:01:14;17.50;94.60
5711;DHT22;61291;52.524;13.422;2022-09-30T12:03:53;17.70;94.00
5711;DHT22;61291;52.524;13.422;2022-09-30T12:06:43;17.80;93.80
5711;DHT22;61291;52.524;13.422;2022-09-30T12:09:22;17.80;92.80
5711;DHT22;61291;52.524;13.422;2022-09-30T12:12:05;17.60;93.20
5711;DHT22;61291;52.524;13.422;2022-09-30T12:14:41;17.60;92.90
5711;DHT22;61291;52.524;13.422;2022-09-30T12:17:30;17.60;92.90
5711;DHT22;61291;52.524;13.422;2022-09-30T12:20:02;17.70;92.20
5711;DHT22;61291;52.524;13.422;2022-09-30T12:22:40;17.80;92.20
5711;DHT22;61291;52.524;13.422;2022-09-30T12:25:16;17.90;92.00
5711;DHT22;61291;52.524;13.422;2022-09-30T12:27:49;17.80;91.70
5711;DHT22;61291;52.524;13.422;2022-09-30T12:30:20;17.80;91.50
5711;DHT22;61291;52.524;13.422;2022-09-30T12:33:08;17.80;91.70
5711;DHT22;61291;52.524;13.422;2022-09-30T12:36:04;17.90;91.30
5711;DHT22;61291;52.524;13.422;2022-09-30T12:39:07;17.90;91.30
5711;DHT22;61291;52.524;13.422;2022-09-30T12:42:06;18.00;90.90
5711;DHT22;61291;52.524;13.422;2022-09-30T12:45:03;18.10;90.30
5711;DHT22;61291;52.524;13.422;2022-09-30T12:47:53;18.30;89.30
5711;DHT22;61291;52.524;13.422;2022-09-30T12:50:21;18.40;90.20
5711;DHT22;61291;52.524;13.422;2022-09-30T12:52:48;18.40;89.40
5711;DHT22;61291;52.524;13.422;2022-09-30T12:55:29;18.40;88.90
5711;DHT22;61291;52.524;13.422;2022-09-30T12:57:58;18.30;88.40
5711;DHT22;61291;52.524;13.422;2022-09-30T13:00:28;18.30;87.00
5711;DHT22;61291;52.524;13.422;2022-09-30T13:03:20;18.30;87.50
5711;DHT22;61291;52.524;13.422;2022-09-30T13:05:51;18.30;87.20
5711;DHT22;61291;52.524;13.422;2022-09-30T13:10:45;18.10;87.00
5711;DHT22;61291;52.524;13.422;2022-09-30T13:13:28;18.10;87.50
5711;DHT22;61291;52.524;13.422;2022-09-30T13:15:58;18.00;87.80
5711;DHT22;61291;52.524;13.422;2022-09-30T13:23:35;18.00;88.10
5711;DHT22;61291;52.524;13.422;2022-09-30T13:26:01;18.10;88.00
5711;DHT22;61291;52.524;13.422;2022-09-30T13:28:29;18.30;87.70
5711;DHT22;61291;52.524;13.422;2022-09-30T13:31:14;18.50;87.20
5711;DHT22;61291;52.524;13.422;2022-09-30T13:33:46;18.60;86.20
5711;DHT22;61291;52.524;13.422;2022-09-30T13:36:18;18.60;86.30
5711;DHT22;61291;52.524;13.422;2022-09-30T13:39:05;18.60;85.50
5711;DHT22;61291;52.524;13.422;2022-09-30T13:41:34;18.60;86.00
5711;DHT22;61291;52.524;13.422;2022-09-30T13:44:12;18.70;85.60
5711;DHT22;61291;52.524;13.422;2022-09-30T13:46:46;18.90;84.90
5711;DHT22;61291;52.524;13.422;2022-09-30T13:49:41;19.10;84.50
5711;DHT22;61291;52.524;13.422;2022-09-30T13:52:26;19.50;84.10
5711;DHT22;61291;52.524;13.422;2022-09-30T13:54:54;19.60;82.90
5711;DHT22;61291;52.524;13.422;2022-09-30T13:57:26;19.60;82.20
5711;DHT22;61291;52.524;13.422;2022-09-30T14:00:02;19.50;81.40
5711;DHT22;61291;52.524;13.422;2022-09-30T14:03:01;19.50;81.20
5711;DHT22;61291;52.524;13.422;2022-09-30T14:05:41;19.40;81.00
5711;DHT22;61291;52.524;13.422;2022-09-30T14:11:12;19.40;79.10
5711;DHT22;61291;52.524;13.422;2022-09-30T14:14:14;19.50;79.50
5711;DHT22;61291;52.524;13.422;2022-09-30T14:19:52;19.50;79.20
5711;DHT22;61291;52.524;13.422;2022-09-30T14:22:24;19.30;79.30
5711;DHT22;61291;52.524;13.422;2022-09-30T14:24:51;18.90;79.10
5711;DHT22;61291;52.524;13.422;2022-09-30T14:27:29;18.60;79.40
5711;DHT22;61291;52.524;13.422;2022-09-30T14:30:21;18.50;79.50
5711;DHT22;61291;52.524;13.422;2022-09-30T14:33:17;18.40;79.40
5711;DHT22;61291;52.524;13.422;2022-09-30T14:35:52;18.40;78.50
5711;DHT22;61291;52.524;13.422;2022-09-30T14:38:20;18.70;79.20
5711;DHT22;61291;52.524;13.422;2022-09-30T14:40:52;18.80;78.80
5711;DHT22;61291;52.524;13.422;2022-09-30T14:43:24;18.80;78.80
5711;DHT22;61291;52.524;13.422;2022-09-30T14:45:55;18.70;78.40
5711;DHT22;61291;52.524;13.422;2022-09-30T14:48:23;18.60;78.10
5711;DHT22;61291;52.524;13.422;2022-09-30T14:50:56;18.60;78.40
5711;DHT22;61291;52.524;13.422;2022-09-30T14:53:39;18.60;78.50
5711;DHT22;61291;52.524;13.422;2022-09-30T14:56:20;18.60;78.40
5711;DHT22;61291;52.524;13.422;2022-09-30T14:58:47;18.60;78.30
5711;DHT22;61291;52.524;13.422;2022-09-30T15:01:18;18.50;78.10
5711;DHT22;61291;52.524;13.422;2022-09-30T15:03:52;18.30;78.00
5711;DHT22;61291;52.524;13.422;2022-09-30T15:06:22;18.20;78.40
5711;DHT22;61291;52.524;13.422;2022-09-30T15:08:49;18.00;78.50
5711;DHT22;61291;52.524;13.422;2022-09-30T15:11:19;17.90;78.60
5711;DHT22;61291;52.524;13.422;2022-09-30T15:13:46;17.60;78.60
5711;DHT22;61291;52.524;13.422;2022-09-30T15:16:28;17.50;78.90
5711;DHT22;61291;52.524;13.422;2022-09-30T15:18:54;17.50;79.20
5711;DHT22;61291;52.524;13.422;2022-09-30T15:21:21;17.40;79.30
5711;DHT22;61291;52.524;13.422;2022-09-30T15:23:49;17.40;79.50
5711;DHT22;61291;52.524;13.422;2022-09-30T15:26:17;17.40;79.60
5711;DHT22;61291;52.524;13.422;2022-09-30T15:28:44;17.40;79.60
5711;DHT22;61291;52.524;13.422;2022-09-30T15:31:25;17.40;79.80
5711;DHT22;61291;52.524;13.422;2022-09-30T15:34:06;17.40;80.10
5711;DHT22;61291;52.524;13.422;2022-09-30T15:36:33;17.40;80.30
5711;DHT22;61291;52.524;13.422;2022-09-30T15:38:59;17.40;80.50
5711;DHT22;61291;52.524;13.422;2022-09-30T15:41:25;17.50;80.60
5711;DHT22;61291;52.524;13.422;2022-09-30T15:43:51;17.60;80.50
5711;DHT22;61291;52.524;13.422;2022-09-30T15:46:32;17.60;80.10
5711;DHT22;61291;52.524;13.422;2022-09-30T15:49:01;17.70;80.00
5711;DHT22;61291;52.524;13.422;2022-09-30T15:54:46;17.70;79.90
5711;DHT22;61291;52.524;13.422;2022-09-30T15:56:51;17.60;80.20
5711;DHT22;61291;52.524;13.422;2022-09-30T15:59:16;17.30;80.40
5711;DHT22;61291;52.524;13.422;2022-09-30T16:01:45;17.00;80.60
5711;DHT22;61291;52.524;13.422;2022-09-30T16:14:52;15.90;83.30
5711;DHT22;61291;52.524;13.422;2022-09-30T16:17:20;15.70;84.60
5711;DHT22;61291;52.524;13.422;2022-09-30T16:19:52;15.40;84.30
5711;DHT22;61291;52.524;13.422;2022-09-30T16:22:47;15.20;84.80
5711;DHT22;61291;52.524;13.422;2022-09-30T16:25:31;15.00;85.40
5711;DHT22;61291;52.524;13.422;2022-09-30T16:28:10;14.70;85.80
5711;DHT22;61291;52.524;13.422;2022-09-30T16:30:41;14.60;86.20
5711;DHT22;61291;52.524;13.422;2022-09-30T16:33:11;14.40;86.80
5711;DHT22;61291;52.524;13.422;2022-09-30T16:35:37;14.30;87.40
5711;DHT22;61291;52.524;13.422;2022-09-30T16:38:05;14.10;88.00
5711;DHT22;61291;52.524;13.422;2022-09-30T16:40:32;14.00;90.40
5711;DHT22;61291;52.524;13.422;2022-09-30T16:42:58;13.80;90.30
5711;DHT22;61291;52.524;13.422;2022-09-30T16:45:27;13.70;90.30
5711;DHT22;61291;52.524;13.422;2022-09-30T16:47:53;13.60;90.40
5711;DHT22;61291;52.524;13.422;2022-09-30T16:50:33;13.40;90.60
5711;DHT22;61291;52.524;13.422;2022-09-30T16:52:59;13.30;91.00
5711;DHT22;61291;52.524;13.422;2022-09-30T16:55:26;13.20;91.10
5711;DHT22;61291;52.524;13.422;2022-09-30T16:57:54;13.10;91.40
5711;DHT22;61291;52.524;13.422;2022-09-30T17:00:21;13.00;91.70
5711;DHT22;61291;52.524;13.422;2022-09-30T17:02:48;13.00;92.10
5711;DHT22;61291;52.524;13.422;2022-09-30T17:05:19;12.80;92.30
5711;DHT22;61291;52.524;13.422;2022-09-30T17:07:55;12.80;92.50
5711;DHT22;61291;52.524;13.422;2022-09-30T17:10:30;12.70;92.80
5711;DHT22;61291;52.524;13.422;2022-09-30T17:12:58;12.70;93.10
5711;DHT22;61291;52.524;13.422;2022-09-30T17:15:29;12.60;93.30
5711;DHT22;61291;52.524;13.422;2022-09-30T17:17:55;12.60;93.40
5711;DHT22;61291;52.524;13.422;2022-09-30T17:20:21;12.60;94.20
5711;DHT22;61291;52.524;13.422;2022-09-30T17:22:47;12.50;94.30
5711;DHT22;61291;52.524;13.422;2022-09-30T17:25:14;12.50;94.40
5711;DHT22;61291;52.524;13.422;2022-09-30T17:27:39;12.50;94.50
5711;DHT22;61291;52.524;13.422;2022-09-30T17:30:06;12.40;94.70
5711;DHT22;61291;52.524;13.422;2022-09-30T17:32:36;12.40;94.70
5711;DHT22;61291;52.524;13.422;2022-09-30T17:35:02;12.40;94.90
5711;DHT22;61291;52.524;13.422;2022-09-30T17:37:30;12.30;94.90
5711;DHT22;61291;52.524;13.422;2022-09-30T17:39:56;12.20;95.10